Kihei, HI

3:52 PM HST on December 19, 2014 (GMT -1000)
WGE Wailea | Change Station
CLOSE
Current Station
Personal Weather Station
Location: Kihei, HI
Elevation: 250 ft
Nearby Weather Stations

Elev 250 ft 20.68 °N, 156.44 °W | Updated 3 seconds ago

Scattered Clouds
Scattered Clouds
79.9 °F
Feels Like 82 °F
N
2.0
Wind Variable Wind from NW
Gusts 5.0 mph

Today
High -- | Low -- °F
--% Chance of Precip.
Yesterday
High -- | Low -- °F
Precip. -- in
6:56 AM 5:49 PM
Waning Crescent, 5% visible
Pressure 29.98 in
Visibility 10.0 miles
Clouds Few 4000 ft
Scattered Clouds 6500 ft
Heat Index 82 °F
Dew Point 68 °F
Humidity 67%
Rainfall 0.00 in
Snow Depth Not available.
UV 3 out of 12
Pollen Not available.
Air Quality Not available.
Flu Activity Not available.
METAR PHOG 200054Z 07016G23KT 10SM FEW040 SCT065 29/18 A2996 RMK AO2 SLP150 T02890183

More Conditions Fewer Conditions

Pressure 29.98 in
Visibility 10.0 miles
Clouds Few 4000 ft
Scattered Clouds 6500 ft
Heat Index 82 °F
Dew Point 68 °F
Humidity 67%
Rainfall 0.00 in
Snow Depth Not available.
UV 3 out of 12
Pollen Not available.
Air Quality Not available.
Flu Activity Not available.
METAR PHOG 200054Z 07016G23KT 10SM FEW040 SCT065 29/18 A2996 RMK AO2 SLP150 T02890183

More Conditions Fewer Conditions

10-Day Weather Forecast

Almanac

Astronomy

Dec. 19, 2014 Rise Set
Actual Time
Civil Twilight
Nautical Twilight
Astronomical Twilight
Moon
Length of Visible Light
Length of Day
Tomorrow will be .
, % of the Moon is Illuminated

Today's Extremes

State Highs State Lows

Community

WunderPhotos

Upload Photos

1,779,102 photos uploaded!

WunderBlogs® & News

Nearby

Air Quality

  Air Quality AQ Index Pollutant
Not available.

Snow Depth

Station Depth Elevation

Earthquake Activity

City Distance Mag. Time & Date
Minimum magnitude displayed is 2.5.

Coastal Water Temperatures

Place Temperature

Nearby Weather Stations